createdAt,value
2019-04-20T00:02:20.643Z,96399.42
2019-04-20T00:04:49.513Z,96399.46
2019-04-20T00:07:24.662Z,96407.16
2019-04-20T00:09:57.518Z,96402.15
2019-04-20T00:12:34.332Z,96400.05
2019-04-20T00:14:52.137Z,96400.19
2019-04-20T00:17:22.034Z,96398.66
2019-04-20T00:19:54.606Z,96394.91
2019-04-20T00:22:34.389Z,96397.05
2019-04-20T00:25:20.981Z,96396.05
2019-04-20T00:28:25.083Z,96396.71
2019-04-20T00:30:57.076Z,96390.47
2019-04-20T00:33:24.170Z,96381.73
2019-04-20T00:35:40.268Z,96379.58
2019-04-20T00:38:09.886Z,96382.52
2019-04-20T00:40:39.320Z,96390.09
2019-04-20T00:43:08.761Z,96388.08
2019-04-20T00:45:46.846Z,96390.56
2019-04-20T00:48:22.429Z,96385.70
2019-04-20T00:50:55.560Z,96389.52
2019-04-20T00:53:20.427Z,96386.58
2019-04-20T00:55:42.235Z,96385.84
2019-04-20T00:58:22.291Z,96386.45
2019-04-20T01:01:07.194Z,96384.72
2019-04-20T01:03:32.244Z,96385.93
2019-04-20T01:06:12.069Z,96383.42
2019-04-20T01:08:25.852Z,96381.17
2019-04-20T01:10:57.433Z,96384.44
2019-04-20T01:13:28.103Z,96386.92
2019-04-20T01:16:05.043Z,96383.69
2019-04-20T01:18:28.085Z,96383.09
2019-04-20T01:21:04.990Z,96383.93
2019-04-20T01:23:37.774Z,96384.06
2019-04-20T01:26:05.478Z,96381.73
2019-04-20T01:28:46.437Z,96384.21
2019-04-20T01:31:14.676Z,96380.66
2019-04-20T01:33:42.908Z,96379.34
2019-04-20T01:36:19.527Z,96381.49
2019-04-20T01:38:49.831Z,96380.41
2019-04-20T01:41:05.431Z,96383.17
2019-04-20T01:43:35.350Z,96377.10
2019-04-20T01:46:13.317Z,96383.64
2019-04-20T01:48:38.654Z,96377.34
2019-04-20T01:51:16.691Z,96386.26
2019-04-20T01:53:58.511Z,96382.00
2019-04-20T01:56:27.480Z,96379.98
2019-04-20T01:59:17.458Z,96384.14
2019-04-20T02:02:09.951Z,96377.39
2019-04-20T02:04:45.187Z,96386.78
2019-04-20T02:07:11.920Z,96384.43
2019-04-20T02:09:48.606Z,96391.19
2019-04-20T02:12:19.072Z,96389.76
2019-04-20T02:14:49.677Z,96394.05
2019-04-20T02:17:25.118Z,96384.55
2019-04-20T02:20:06.574Z,96391.23
2019-04-20T02:22:39.303Z,96392.77
2019-04-20T02:24:47.280Z,96390.53
2019-04-20T02:27:20.600Z,96392.41
2019-04-20T02:30:14.080Z,96397.17
2019-04-20T02:32:57.062Z,96393.13
2019-04-20T02:35:36.685Z,96396.80
2019-04-20T02:38:10.571Z,96395.59
2019-04-20T02:40:46.928Z,96398.22
2019-04-20T02:43:15.092Z,96391.13
2019-04-20T02:45:40.397Z,96399.89
2019-04-20T02:48:07.682Z,96393.25
2019-04-20T02:50:43.378Z,96398.60
2019-04-20T02:53:20.290Z,96399.89
2019-04-20T02:55:51.778Z,96394.25
2019-04-20T02:58:15.280Z,96397.45
2019-04-20T03:00:38.625Z,96393.30
2019-04-20T03:02:59.986Z,96398.61
2019-04-20T03:05:30.833Z,96396.03
2019-04-20T03:08:08.480Z,96389.67
2019-04-20T03:10:46.305Z,96393.84
2019-04-20T03:13:15.408Z,96395.97
2019-04-20T03:15:44.542Z,96396.15
2019-04-20T03:18:13.607Z,96395.30
2019-04-20T03:20:46.015Z,96392.09
2019-04-20T03:25:58.316Z,96388.34
2019-04-20T03:28:42.970Z,96396.16
2019-04-20T03:31:58.886Z,96397.28
2019-04-20T03:34:13.017Z,96392.88
2019-04-20T03:36:39.793Z,96390.02
2019-04-20T03:38:47.944Z,96394.80
2019-04-20T03:41:14.000Z,96398.38
2019-04-20T03:43:35.090Z,96401.32
2019-04-20T03:46:08.409Z,96400.88
2019-04-20T03:48:51.590Z,96400.05
2019-04-20T03:51:30.612Z,96406.81
2019-04-20T03:54:08.537Z,96402.87
2019-04-20T03:56:51.759Z,96403.59
2019-04-20T03:59:35.998Z,96409.42
2019-04-20T04:05:03.309Z,96405.51
2019-04-20T04:07:19.602Z,96408.69
2019-04-20T04:10:00.906Z,96407.84
2019-04-20T04:12:49.782Z,96408.41
2019-04-20T04:15:19.263Z,96411.19
2019-04-20T04:17:49.843Z,96416.02
2019-04-20T04:20:21.385Z,96411.89
2019-04-20T04:23:10.147Z,96417.02
2019-04-20T04:25:33.573Z,96414.76
2019-04-20T04:28:09.543Z,96413.70
2019-04-20T04:30:39.318Z,96420.73
2019-04-20T04:35:38.682Z,96414.55
2019-04-20T04:38:12.655Z,96417.28
2019-04-20T04:40:56.638Z,96420.27
2019-04-20T04:43:19.922Z,96421.32
2019-04-20T04:45:31.702Z,96425.27
2019-04-20T04:47:59.896Z,96420.77
2019-04-20T04:50:31.434Z,96426.97
2019-04-20T04:53:09.323Z,96428.46
2019-04-20T04:55:41.717Z,96430.23
2019-04-20T04:58:02.431Z,96427.92
2019-04-20T05:00:34.193Z,96433.80
2019-04-20T05:03:23.161Z,96442.27
2019-04-20T05:06:07.604Z,96440.75
2019-04-20T05:08:24.125Z,96439.36
2019-04-20T05:10:49.897Z,96438.31
2019-04-20T05:13:19.936Z,96441.55
2019-04-20T05:16:05.208Z,96442.35
2019-04-20T05:18:44.864Z,96440.58
2019-04-20T05:21:20.796Z,96433.59
2019-04-20T05:23:53.273Z,96438.31
2019-04-20T05:26:51.005Z,96434.68
2019-04-20T05:29:06.742Z,96434.86
2019-04-20T05:31:34.016Z,96434.95
2019-04-20T05:36:50.585Z,96432.22
2019-04-20T05:39:31.173Z,96436.30
2019-04-20T05:41:53.232Z,96432.08
2019-04-20T05:44:20.991Z,96428.56
2019-04-20T05:47:02.833Z,96432.56
2019-04-20T05:49:32.158Z,96426.46
2019-04-20T05:52:07.734Z,96426.94
2019-04-20T05:54:36.415Z,96434.20
2019-04-20T05:57:10.311Z,96424.71
2019-04-20T05:59:35.064Z,96430.50
2019-04-20T06:02:10.135Z,96431.34
2019-04-20T06:04:55.662Z,96430.77
2019-04-20T06:07:11.086Z,96438.58
2019-04-20T06:09:44.867Z,96442.86
2019-04-20T06:12:25.548Z,96442.16
2019-04-20T06:15:08.002Z,96444.78
2019-04-20T06:18:02.732Z,96443.21
2019-04-20T06:20:41.289Z,96444.63
2019-04-20T06:23:35.509Z,96443.63
2019-04-20T06:26:17.173Z,96446.16
2019-04-20T06:28:25.870Z,96452.05
2019-04-20T06:30:53.953Z,96447.80
2019-04-20T06:37:06.756Z,96455.13
2019-04-20T06:39:48.749Z,96453.41
2019-04-20T06:42:14.093Z,96454.52
2019-04-20T06:44:35.610Z,96455.56
2019-04-20T06:52:27.698Z,96455.04
2019-04-20T06:55:11.137Z,96457.14
2019-04-20T06:57:48.612Z,96457.83
2019-04-20T07:00:15.370Z,96457.98
2019-04-20T07:02:49.157Z,96463.61
2019-04-20T07:05:21.228Z,96461.48
2019-04-20T07:07:54.366Z,96455.36
2019-04-20T07:10:25.300Z,96462.28
2019-04-20T07:12:45.469Z,96454.99
2019-04-20T07:15:19.871Z,96454.91
2019-04-20T07:18:13.818Z,96454.19
2019-04-20T07:20:39.637Z,96461.20
2019-04-20T07:23:18.155Z,96452.16
2019-04-20T07:25:45.854Z,96450.38
2019-04-20T07:28:14.435Z,96463.95
2019-04-20T07:30:41.737Z,96460.64
2019-04-20T07:33:08.747Z,96455.74
2019-04-20T07:35:41.766Z,96453.98
2019-04-20T07:38:30.058Z,96453.33
2019-04-20T07:40:38.145Z,96455.41
2019-04-20T07:43:08.140Z,96453.70
2019-04-20T07:45:40.147Z,96463.52
2019-04-20T07:48:15.552Z,96457.02
2019-04-20T07:50:40.932Z,96460.34
2019-04-20T07:53:14.674Z,96455.74
2019-04-20T07:58:10.768Z,96456.72
2019-04-20T08:01:05.752Z,96458.00
2019-04-20T08:06:07.755Z,96447.09
2019-04-20T08:08:49.272Z,96447.93
2019-04-20T08:11:23.153Z,96450.91
2019-04-20T08:13:59.049Z,96457.50
2019-04-20T08:16:32.876Z,96451.69
2019-04-20T08:18:55.397Z,96458.84
2019-04-20T08:21:28.594Z,96455.40
2019-04-20T08:23:55.700Z,96456.91
2019-04-20T08:26:16.240Z,96451.80
2019-04-20T08:28:52.851Z,96446.66
2019-04-20T08:32:15.531Z,96444.37
2019-04-20T08:35:02.252Z,96447.05
2019-04-20T08:37:11.628Z,96444.34
2019-04-20T08:39:55.870Z,96445.20
2019-04-20T08:42:16.463Z,96445.58
2019-04-20T08:45:00.126Z,96445.76
2019-04-20T08:47:35.291Z,96445.00
2019-04-20T08:50:09.528Z,96446.88
2019-04-20T08:55:12.474Z,96438.38
2019-04-20T08:57:22.618Z,96442.36
2019-04-20T08:59:53.049Z,96443.55
2019-04-20T09:02:23.900Z,96438.27
2019-04-20T09:05:02.436Z,96442.36
2019-04-20T09:07:28.234Z,96445.19
2019-04-20T09:10:16.611Z,96432.50
2019-04-20T09:12:40.887Z,96443.38
2019-04-20T09:14:57.373Z,96432.98
2019-04-20T09:17:53.961Z,96431.98
2019-04-20T09:20:31.743Z,96431.20
2019-04-20T09:23:15.679Z,96431.77
2019-04-20T09:28:25.561Z,96428.94
2019-04-20T09:31:02.608Z,96423.98
2019-04-20T09:34:04.572Z,96422.06
2019-04-20T09:36:40.838Z,96420.08
2019-04-20T09:39:17.720Z,96417.98
2019-04-20T09:41:59.769Z,96413.72
2019-04-20T09:44:15.570Z,96421.36
2019-04-20T09:46:50.028Z,96413.78
2019-04-20T09:49:32.455Z,96407.35
2019-04-20T09:52:01.774Z,96408.66
2019-04-20T09:54:39.994Z,96406.45
2019-04-20T09:57:11.840Z,96404.64
2019-04-20T09:59:37.170Z,96401.17
2019-04-20T10:02:03.602Z,96393.97
2019-04-20T10:04:23.902Z,96398.58
2019-04-20T10:06:53.353Z,96387.19
2019-04-20T10:09:28.041Z,96390.31
2019-04-20T10:11:53.468Z,96390.66
2019-04-20T10:14:22.708Z,96390.00
2019-04-20T10:16:51.938Z,96385.05
2019-04-20T10:19:26.559Z,96390.80
2019-04-20T10:21:52.826Z,96383.20
2019-04-20T10:24:22.199Z,96383.53
2019-04-20T10:26:52.485Z,96379.05
2019-04-20T10:29:21.728Z,96387.65
2019-04-20T10:31:55.592Z,96380.22
2019-04-20T10:34:24.021Z,96380.87
2019-04-20T10:37:11.792Z,96376.59
2019-04-20T10:39:42.656Z,96382.88
2019-04-20T10:42:12.301Z,96370.14
2019-04-20T10:44:41.507Z,96373.60
2019-04-20T10:47:11.315Z,96377.06
2019-04-20T10:49:40.939Z,96366.65
2019-04-20T10:52:11.583Z,96366.65
2019-04-20T10:54:42.589Z,96376.07
2019-04-20T10:57:13.242Z,96370.94
2019-04-20T10:59:43.681Z,96365.67
2019-04-20T11:02:13.988Z,96367.48
2019-04-20T11:04:44.375Z,96360.70
2019-04-20T11:07:14.646Z,96359.72
2019-04-20T11:09:44.806Z,96361.19
2019-04-20T11:12:14.537Z,96361.86
2019-04-20T11:14:45.541Z,96353.62
2019-04-20T11:17:14.688Z,96355.61
2019-04-20T11:19:45.250Z,96351.64
2019-04-20T11:22:14.623Z,96350.98
2019-04-20T11:24:44.043Z,96348.65
2019-04-20T11:27:14.248Z,96355.08
2019-04-20T11:29:44.441Z,96344.66
2019-04-20T11:32:14.273Z,96345.34
2019-04-20T11:34:45.079Z,96344.68
2019-04-20T11:37:15.249Z,96354.27
2019-04-20T11:39:45.319Z,96345.66
2019-04-20T11:42:14.530Z,96344.98
2019-04-20T11:44:44.771Z,96342.05
2019-04-20T11:47:14.740Z,96343.20
2019-04-20T11:49:44.015Z,96343.35
2019-04-20T11:52:14.221Z,96340.23
2019-04-20T11:54:44.409Z,96340.58
2019-04-20T11:57:13.866Z,96332.63
2019-04-20T11:59:43.210Z,96341.38
2019-04-20T12:02:30.111Z,96334.59
2019-04-20T12:05:10.098Z,96332.30
2019-04-20T12:07:35.240Z,96331.48
2019-04-20T12:10:10.079Z,96328.36
2019-04-20T12:12:41.897Z,96330.17
2019-04-20T12:15:08.666Z,96318.30
2019-04-20T12:17:37.958Z,96320.09
2019-04-20T12:20:08.086Z,96319.47
2019-04-20T12:22:37.292Z,96316.31
2019-04-20T12:25:07.939Z,96317.93
2019-04-20T12:27:41.983Z,96310.34
2019-04-20T12:30:10.263Z,96305.22
2019-04-20T12:32:42.897Z,96307.83
2019-04-20T12:35:12.116Z,96310.96
2019-04-20T12:37:41.307Z,96303.84
2019-04-20T12:40:12.069Z,96308.48
2019-04-20T12:42:41.406Z,96304.34
2019-04-20T12:45:11.598Z,96308.14
2019-04-20T12:47:41.722Z,96305.81
2019-04-20T12:50:12.000Z,96308.80
2019-04-20T12:52:41.117Z,96306.80
2019-04-20T12:55:12.414Z,96298.56
2019-04-20T12:57:42.786Z,96302.70
2019-04-20T13:00:15.236Z,96302.01
2019-04-20T13:02:45.331Z,96298.48
2019-04-20T13:05:15.465Z,96299.97
2019-04-20T13:07:49.256Z,96295.85
2019-04-20T13:10:17.825Z,96288.72
2019-04-20T13:13:18.607Z,96289.00
2019-04-20T13:16:08.045Z,96284.88
2019-04-20T13:18:50.903Z,96288.13
2019-04-20T13:21:21.047Z,96279.34
2019-04-20T13:23:51.105Z,96279.73
2019-04-20T13:26:20.414Z,96276.91
2019-04-20T13:28:50.671Z,96282.67
2019-04-20T13:31:20.086Z,96280.48
2019-04-20T13:33:49.459Z,96267.02
2019-04-20T13:36:19.946Z,96269.02
2019-04-20T13:38:50.056Z,96270.00
2019-04-20T13:41:19.856Z,96270.95
2019-04-20T13:43:50.226Z,96263.34
2019-04-20T13:46:20.732Z,96267.44
2019-04-20T13:48:51.066Z,96264.75
2019-04-20T13:51:21.022Z,96259.75
2019-04-20T13:53:51.068Z,96256.33
2019-04-20T13:56:21.876Z,96256.73
2019-04-20T13:59:19.623Z,96252.02
2019-04-20T14:01:54.943Z,96243.52
2019-04-20T14:04:30.580Z,96244.75
2019-04-20T14:07:01.571Z,96240.42
2019-04-20T14:09:30.998Z,96232.51
2019-04-20T14:12:11.854Z,96226.30
2019-04-20T14:14:32.841Z,96231.56
2019-04-20T14:17:03.267Z,96215.64
2019-04-20T14:19:32.557Z,96220.29
2019-04-20T14:22:02.118Z,96222.75
2019-04-20T14:24:31.443Z,96221.78
2019-04-20T14:27:01.195Z,96216.12
2019-04-20T14:29:30.740Z,96217.92
2019-04-20T14:32:02.281Z,96210.45
2019-04-20T14:34:31.157Z,96209.33
2019-04-20T14:37:00.539Z,96208.34
2019-04-20T14:39:30.242Z,96213.28
2019-04-20T14:42:00.403Z,96201.34
2019-04-20T14:44:29.927Z,96197.53
2019-04-20T14:47:00.110Z,96196.41
2019-04-20T14:49:30.509Z,96194.86
2019-04-20T14:52:01.548Z,96196.40
2019-04-20T14:54:31.835Z,96187.41
2019-04-20T14:57:01.474Z,96183.36
2019-04-20T14:59:41.357Z,96191.42
2019-04-20T15:02:12.803Z,96186.97
2019-04-20T15:04:43.257Z,96181.19
2019-04-20T15:07:12.948Z,96173.19
2019-04-20T15:09:42.922Z,96176.13
2019-04-20T15:12:13.005Z,96173.89
2019-04-20T15:14:42.716Z,96176.09
2019-04-20T15:17:15.524Z,96169.32
2019-04-20T15:19:57.761Z,96176.66
2019-04-20T15:22:33.772Z,96161.47
2019-04-20T15:25:03.365Z,96167.91
2019-04-20T15:27:33.214Z,96163.41
2019-04-20T15:30:02.790Z,96154.45
2019-04-20T15:32:32.979Z,96158.96
2019-04-20T15:35:03.055Z,96160.27
2019-04-20T15:37:33.027Z,96155.31
2019-04-20T15:40:03.448Z,96156.42
2019-04-20T15:42:33.185Z,96153.91
2019-04-20T15:45:03.418Z,96155.62
2019-04-20T15:47:34.104Z,96151.87
2019-04-20T15:50:04.174Z,96150.95
2019-04-20T15:52:39.933Z,96142.98
2019-04-20T15:55:17.042Z,96147.47
2019-04-20T15:57:36.805Z,96148.83
2019-04-20T16:00:06.819Z,96153.66
2019-04-20T16:02:59.112Z,96142.14
2019-04-20T16:05:41.724Z,96142.69
2019-04-20T16:08:26.007Z,96141.46
2019-04-20T16:10:55.428Z,96145.29
2019-04-20T16:13:32.298Z,96142.91
2019-04-20T16:15:56.043Z,96140.96
2019-04-20T16:18:25.284Z,96136.52
2019-04-20T16:21:04.957Z,96140.17
2019-04-20T16:23:25.701Z,96134.77
2019-04-20T16:26:17.718Z,96135.58
2019-04-20T16:28:47.944Z,96135.33
2019-04-20T16:31:18.354Z,96127.15
2019-04-20T16:33:48.864Z,96129.38
2019-04-20T16:36:18.699Z,96123.13
2019-04-20T16:38:47.954Z,96123.75
2019-04-20T16:41:18.197Z,96114.78
2019-04-20T16:43:48.584Z,96119.75
2019-04-20T16:46:22.080Z,96120.81
2019-04-20T16:48:49.677Z,96127.03
2019-04-20T16:51:18.850Z,96112.56
2019-04-20T16:53:48.350Z,96116.05
2019-04-20T16:56:20.364Z,96113.84
2019-04-20T16:58:57.344Z,96111.67
2019-04-20T17:01:19.477Z,96110.95
2019-04-20T17:03:54.483Z,96106.70
2019-04-20T17:06:20.602Z,96110.28
2019-04-20T17:08:51.341Z,96110.62
2019-04-20T17:11:21.653Z,96106.47
2019-04-20T17:13:54.745Z,96109.92
2019-04-20T17:16:22.196Z,96105.66
2019-04-20T17:18:51.971Z,96112.98
2019-04-20T17:21:25.267Z,96110.08
2019-04-20T17:23:53.235Z,96108.09
2019-04-20T17:26:35.148Z,96102.40
2019-04-20T17:29:10.598Z,96107.06
2019-04-20T17:31:58.917Z,96110.53
2019-04-20T17:34:44.003Z,96107.95
2019-04-20T17:37:00.411Z,96109.62
2019-04-20T17:39:41.179Z,96109.27
2019-04-20T17:42:17.426Z,96110.61
2019-04-20T17:44:46.908Z,96108.22
2019-04-20T17:47:21.493Z,96110.92
2019-04-20T17:49:51.736Z,96109.61
2019-04-20T17:52:28.149Z,96112.80
2019-04-20T17:54:45.264Z,96113.12
2019-04-20T17:57:15.251Z,96116.44
2019-04-20T17:59:54.146Z,96116.35
2019-04-20T18:02:52.175Z,96112.39
2019-04-20T18:05:37.326Z,96114.15
2019-04-20T18:08:04.141Z,96109.83
2019-04-20T18:10:31.725Z,96119.98
2019-04-20T18:12:48.443Z,96114.14
2019-04-20T18:15:31.348Z,96119.17
2019-04-20T18:18:24.493Z,96127.00
2019-04-20T18:20:50.545Z,96119.81
2019-04-20T18:23:25.485Z,96118.86
2019-04-20T18:26:15.697Z,96123.42
2019-04-20T18:28:40.119Z,96120.99
2019-04-20T18:31:21.797Z,96120.86
2019-04-20T18:33:54.162Z,96120.09
2019-04-20T18:36:28.863Z,96123.30
2019-04-20T18:39:00.704Z,96117.72
2019-04-20T18:41:33.955Z,96127.64
2019-04-20T18:43:59.022Z,96120.41
2019-04-20T18:46:49.461Z,96123.25
2019-04-20T18:49:16.308Z,96127.40
2019-04-20T18:51:29.985Z,96121.48
2019-04-20T18:54:05.582Z,96125.09
2019-04-20T18:56:34.192Z,96126.10
2019-04-20T18:59:01.172Z,96125.12
2019-04-20T19:01:34.899Z,96122.19
2019-04-20T19:04:01.801Z,96126.47
2019-04-20T19:06:31.820Z,96122.83
2019-04-20T19:09:02.784Z,96124.34
2019-04-20T19:11:35.463Z,96127.32
2019-04-20T19:14:33.511Z,96125.17
2019-04-20T19:17:08.932Z,96130.47
2019-04-20T19:19:42.657Z,96131.63
2019-04-20T19:22:08.017Z,96137.72
2019-04-20T19:24:38.587Z,96138.73
2019-04-20T19:27:12.559Z,96136.24
2019-04-20T19:29:50.568Z,96140.83
2019-04-20T19:32:24.091Z,96134.91
2019-04-20T19:34:50.185Z,96133.90
2019-04-20T19:37:23.197Z,96135.22
2019-04-20T19:40:02.384Z,96137.34
2019-04-20T19:42:29.799Z,96136.37
2019-04-20T19:45:01.959Z,96136.02
2019-04-20T19:47:41.334Z,96141.47
2019-04-20T19:50:11.128Z,96137.48
2019-04-20T19:52:49.209Z,96132.73
2019-04-20T19:55:06.311Z,96134.66
2019-04-20T19:57:39.821Z,96129.22
2019-04-20T19:59:55.572Z,96131.05
2019-04-20T20:02:23.685Z,96130.70
2019-04-20T20:05:00.432Z,96132.50
2019-04-20T20:07:33.321Z,96133.77
2019-04-20T20:10:00.356Z,96135.60
2019-04-20T20:12:25.811Z,96131.39
2019-04-20T20:14:55.453Z,96134.83
2019-04-20T20:17:43.774Z,96139.94
2019-04-20T20:20:20.299Z,96131.65
2019-04-20T20:22:34.217Z,96134.86
2019-04-20T20:24:58.978Z,96132.20
2019-04-20T20:27:33.949Z,96131.41
2019-04-20T20:30:11.942Z,96124.45
2019-04-20T20:32:49.174Z,96134.25
2019-04-20T20:35:12.555Z,96135.83
2019-04-20T20:37:40.294Z,96136.56
2019-04-20T20:40:16.012Z,96140.48
2019-04-20T20:42:48.551Z,96135.98
2019-04-20T20:45:15.772Z,96134.10
2019-04-20T20:47:53.761Z,96142.53
2019-04-20T20:50:30.040Z,96135.25
2019-04-20T20:52:57.865Z,96134.64
2019-04-20T20:55:24.653Z,96135.13
2019-04-20T20:57:55.708Z,96136.92
2019-04-20T21:00:23.866Z,96138.53
2019-04-20T21:02:52.552Z,96135.34
2019-04-20T21:05:15.537Z,96131.98
2019-04-20T21:07:47.906Z,96134.09
2019-04-20T21:10:25.933Z,96139.66
2019-04-20T21:12:53.814Z,96138.34
2019-04-20T21:15:22.221Z,96140.74
2019-04-20T21:18:08.467Z,96137.16
2019-04-20T21:20:40.996Z,96137.31
2019-04-20T21:23:07.205Z,96134.84
2019-04-20T21:25:33.682Z,96138.47
2019-04-20T21:27:57.020Z,96136.13
2019-04-20T21:30:35.111Z,96138.69
2019-04-20T21:33:02.322Z,96137.78
2019-04-20T21:35:36.607Z,96137.78
2019-04-20T21:38:07.628Z,96143.06
2019-04-20T21:40:39.514Z,96144.31
2019-04-20T21:43:07.281Z,96146.05
2019-04-20T21:45:37.553Z,96135.53
2019-04-20T21:48:12.387Z,96132.91
2019-04-20T21:50:57.499Z,96132.91
2019-04-20T21:53:15.710Z,96134.13
2019-04-20T21:55:39.732Z,96132.60
2019-04-20T21:58:11.977Z,96132.39
2019-04-20T22:01:10.938Z,96127.26
2019-04-20T22:03:29.997Z,96123.72
2019-04-20T22:06:08.928Z,96130.61
2019-04-20T22:08:44.536Z,96125.32
2019-04-20T22:11:09.195Z,96128.30
2019-04-20T22:13:42.035Z,96125.12
2019-04-20T22:16:12.784Z,96121.13
2019-04-20T22:18:53.016Z,96123.28
2019-04-20T22:21:22.496Z,96121.73
2019-04-20T22:24:05.689Z,96126.71
2019-04-20T22:26:29.707Z,96122.89
2019-04-20T22:28:50.196Z,96123.09
2019-04-20T22:31:20.373Z,96115.81
2019-04-20T22:33:50.575Z,96114.30
2019-04-20T22:36:20.322Z,96117.84
2019-04-20T22:39:09.608Z,96109.05
2019-04-20T22:41:56.387Z,96104.88
2019-04-20T22:44:24.931Z,96107.10
2019-04-20T22:46:54.295Z,96098.46
2019-04-20T22:49:42.047Z,96099.97
2019-04-20T22:52:02.786Z,96099.58
2019-04-20T22:54:39.738Z,96091.85
2019-04-20T22:57:08.743Z,96090.33
2019-04-20T22:59:40.479Z,96087.36
2019-04-20T23:02:01.198Z,96083.75
2019-04-20T23:04:30.757Z,96089.67
2019-04-20T23:07:00.949Z,96076.27
2019-04-20T23:09:34.097Z,96081.03
2019-04-20T23:12:09.178Z,96084.02
2019-04-20T23:14:32.430Z,96085.11
2019-04-20T23:17:02.139Z,96079.25
2019-04-20T23:19:41.595Z,96070.66
2019-04-20T23:22:05.348Z,96071.74
2019-04-20T23:24:33.295Z,96063.39
2019-04-20T23:27:06.519Z,96063.47
2019-04-20T23:29:37.965Z,96068.30
2019-04-20T23:32:09.509Z,96061.64
2019-04-20T23:34:37.647Z,96062.28
2019-04-20T23:37:16.060Z,96059.30
2019-04-20T23:39:42.917Z,96057.04
2019-04-20T23:42:12.476Z,96052.58
2019-04-20T23:44:52.058Z,96047.61
2019-04-20T23:47:30.123Z,96049.48
2019-04-20T23:50:15.208Z,96043.00
2019-04-20T23:52:53.873Z,96037.22
2019-04-20T23:55:09.419Z,96040.14
2019-04-20T23:57:35.938Z,96037.47
